Time;durP1;ratioP1;P1;durP2;ratioP2;P2;SDS_P1;SDS_P2;PMS_P1;PMS_P2;Temp;Humidity;BMP_temperature;BMP_pressure;BME280_temperature;BME280_humidity;BME280_pressure;Samples;Min_cycle;Max_cycle;Signal;HPM_P1;HPM_P2
2021/12/21 00:00:53;;;;;;;31.85;27.20;;;-1.40;99.90;;;;;;5108453;28;20086;-80
2021/12/21 00:03:18;;;;;;;32.72;27.25;;;-1.30;99.90;;;;;;5106258;28;20040;-79
2021/12/21 00:05:45;;;;;;;30.58;27.25;;;-1.40;99.90;;;;;;5094826;28;20044;-79
2021/12/21 00:08:13;;;;;;;30.35;25.15;;;-1.40;99.90;;;;;;5106473;28;20446;-78
2021/12/21 00:10:43;;;;;;;32.65;25.40;;;-1.40;99.90;;;;;;5113424;28;20043;-80
2021/12/21 00:14:10;;;;;;;31.27;25.88;;;-1.40;99.90;;;;;;5104410;28;20044;-77
2021/12/21 00:16:09;;;;;;;35.83;29.50;;;-1.40;99.90;;;;;;5105276;28;20485;-80
2021/12/21 00:18:41;;;;;;;37.42;29.25;;;-1.50;99.90;;;;;;5098619;28;20051;-80
2021/12/21 00:21:55;;;;;;;32.83;27.63;;;-1.50;99.90;;;;;;5094395;28;20462;-80
2021/12/21 00:24:00;;;;;;;34.45;26.95;;;-1.50;99.90;;;;;;5070302;28;20093;-80
2021/12/21 00:26:26;;;;;;;31.63;27.20;;;-1.50;99.90;;;;;;5092771;28;20485;-79
2021/12/21 00:29:02;;;;;;;29.50;25.33;;;-1.50;99.90;;;;;;5115154;28;20050;-80
2021/12/21 00:31:33;;;;;;;26.05;22.48;;;-1.50;99.90;;;;;;5112626;28;20473;-79
2021/12/21 00:34:00;;;;;;;22.17;18.30;;;-1.50;99.90;;;;;;5114911;28;20052;-79
2021/12/21 00:36:28;;;;;;;32.67;25.88;;;-1.50;99.90;;;;;;5113695;28;20051;-79
2021/12/21 00:38:56;;;;;;;27.00;23.50;;;-1.50;99.90;;;;;;5093568;28;20044;-79
2021/12/21 00:41:24;;;;;;;22.90;20.52;;;-1.50;99.90;;;;;;5093426;28;20044;-79
2021/12/21 00:43:51;;;;;;;22.20;19.83;;;-1.60;99.90;;;;;;5110909;28;20373;-79
2021/12/21 00:46:17;;;;;;;18.40;16.42;;;-1.60;99.90;;;;;;5113894;28;20054;-78
2021/12/21 00:48:52;;;;;;;36.97;31.95;;;-1.60;99.90;;;;;;5097474;28;20041;-79
2021/12/21 00:51:20;;;;;;;36.55;30.20;;;-1.60;99.90;;;;;;5113810;28;20126;-79
2021/12/21 00:53:46;;;;;;;30.75;27.48;;;-1.50;99.90;;;;;;5097799;28;20396;-79
2021/12/21 00:56:12;;;;;;;32.25;28.13;;;-1.50;99.90;;;;;;5094906;28;20048;-79
2021/12/21 00:58:38;;;;;;;37.45;29.35;;;-1.50;99.90;;;;;;5108199;28;20039;-79
2021/12/21 01:01:06;;;;;;;32.72;29.25;;;-1.50;99.90;;;;;;5114151;28;20046;-79
2021/12/21 01:03:40;;;;;;;31.25;27.38;;;-1.50;99.90;;;;;;5099519;28;20075;-79
2021/12/21 01:06:16;;;;;;;33.17;27.65;;;-1.50;99.90;;;;;;5093731;28;20131;-79
2021/12/21 01:11:42;;;;;;;35.28;27.60;;;-1.50;99.90;;;;;;5071424;28;20083;-79
2021/12/21 01:17:00;;;;;;;35.55;30.63;;;-1.50;99.90;;;;;;5113056;28;20058;-78
2021/12/21 01:19:45;;;;;;;33.83;28.48;;;-1.60;99.90;;;;;;5110918;28;20127;-79
2021/12/21 01:27:42;;;;;;;35.83;28.30;;;-1.60;99.90;;;;;;5108869;28;20052;-78
2021/12/21 01:30:23;;;;;;;30.33;27.05;;;-1.60;99.90;;;;;;5073176;28;20109;-79
2021/12/21 01:35:41;;;;;;;31.38;23.95;;;-1.70;99.90;;;;;;5093642;28;20090;-79
2021/12/21 01:38:20;;;;;;;24.05;20.10;;;-1.70;99.90;;;;;;5099133;28;20465;-79
2021/12/21 01:41:19;;;;;;;21.60;19.40;;;-1.70;99.90;;;;;;5104584;28;20048;-79
2021/12/21 01:43:55;;;;;;;21.17;19.02;;;-1.80;99.90;;;;;;5100413;28;20425;-79
2021/12/21 01:51:49;;;;;;;28.92;23.40;;;-1.90;99.90;;;;;;5092974;28;20125;-79
2021/12/21 01:54:15;;;;;;;26.33;22.65;;;-2.00;99.90;;;;;;5107589;28;20043;-79
2021/12/21 01:56:41;;;;;;;24.58;21.98;;;-2.00;99.90;;;;;;5112530;28;20174;-79
2021/12/21 01:59:09;;;;;;;23.35;20.90;;;-2.00;99.90;;;;;;5101742;28;20043;-78
2021/12/21 02:01:35;;;;;;;22.77;20.38;;;-2.00;99.90;;;;;;5112284;28;20477;-78
2021/12/21 02:04:01;;;;;;;27.48;21.45;;;-2.10;99.90;;;;;;5102759;28;20039;-79
2021/12/21 02:06:28;;;;;;;27.85;21.25;;;-2.10;99.90;;;;;;5112206;28;20043;-78
2021/12/21 02:08:54;;;;;;;28.40;20.50;;;-2.20;99.90;;;;;;5093877;28;20044;-79
2021/12/21 02:11:21;;;;;;;24.08;19.70;;;-2.10;99.90;;;;;;5092499;28;20048;-77
2021/12/21 02:13:48;;;;;;;22.15;18.15;;;-2.20;99.90;;;;;;5094990;28;20048;-79
2021/12/21 02:16:21;;;;;;;23.83;18.33;;;-2.20;99.90;;;;;;5092783;28;20503;-79
2021/12/21 02:23:41;;;;;;;25.27;20.60;;;-2.30;99.90;;;;;;5093076;28;20055;-79
2021/12/21 02:26:38;;;;;;;25.67;21.30;;;-2.30;99.90;;;;;;5106831;28;20044;-79
2021/12/21 02:31:38;;;;;;;29.33;23.35;;;-2.20;99.90;;;;;;5112318;28;20101;-78
2021/12/21 02:34:05;;;;;;;27.45;21.65;;;-2.20;99.90;;;;;;5110641;28;20381;-78
2021/12/21 02:36:31;;;;;;;28.38;22.40;;;-2.20;99.90;;;;;;5107516;28;20040;-78
2021/12/21 02:38:57;;;;;;;27.48;21.50;;;-2.20;99.90;;;;;;5093391;28;20127;-78
2021/12/21 02:41:24;;;;;;;26.55;22.95;;;-2.20;99.90;;;;;;5092546;28;20044;-78
2021/12/21 02:43:51;;;;;;;28.60;23.00;;;-2.20;99.90;;;;;;5093167;28;20870;-79
2021/12/21 02:46:17;;;;;;;29.27;23.40;;;-2.20;99.90;;;;;;5095217;28;20051;-79
2021/12/21 02:48:42;;;;;;;32.45;22.98;;;-2.20;99.90;;;;;;5112157;28;20042;-78
2021/12/21 02:51:08;;;;;;;25.55;22.80;;;-2.20;99.90;;;;;;5094252;28;20051;-78
2021/12/21 02:53:34;;;;;;;29.25;22.55;;;-2.20;99.90;;;;;;5110244;28;20044;-78
2021/12/21 02:55:59;;;;;;;28.00;23.02;;;-2.10;99.90;;;;;;5112663;28;20113;-78
2021/12/21 02:58:25;;;;;;;28.75;23.55;;;-2.10;99.90;;;;;;5092248;28;20079;-78
2021/12/21 03:00:53;;;;;;;30.15;23.50;;;-2.20;99.90;;;;;;5093229;28;20115;-78
2021/12/21 03:03:20;;;;;;;25.80;22.67;;;-2.10;99.90;;;;;;5109512;28;20088;-79
2021/12/21 03:05:50;;;;;;;31.58;24.52;;;-2.20;99.90;;;;;;5114158;28;20051;-78
2021/12/21 03:08:25;;;;;;;;;;;-2.10;99.90;;;;;;5117029;28;20047;-79
2021/12/21 03:14:13;;;;;;;26.98;23.73;;;-2.20;99.90;;;;;;5096064;28;20048;-79
2021/12/21 03:16:20;;;;;;;37.42;28.83;;;-2.20;99.90;;;;;;5088115;28;20048;-78
2021/12/21 03:18:46;;;;;;;34.38;30.02;;;-2.20;99.90;;;;;;5095141;28;20040;-78
2021/12/21 03:21:12;;;;;;;35.83;31.42;;;-2.20;99.90;;;;;;5114894;28;20526;-79
2021/12/21 03:23:38;;;;;;;32.38;25.98;;;-2.20;99.90;;;;;;5115567;28;20043;-78
2021/12/21 03:26:04;;;;;;;34.05;29.40;;;-2.20;99.90;;;;;;5098081;28;20404;-78
2021/12/21 03:28:30;;;;;;;26.20;22.23;;;-2.10;99.90;;;;;;5106450;28;20039;-78
2021/12/21 03:30:56;;;;;;;22.73;20.27;;;-2.10;99.90;;;;;;5114777;28;20039;-78
2021/12/21 03:33:22;;;;;;;17.77;15.98;;;-2.10;99.90;;;;;;5096851;27;20051;-79
2021/12/21 03:35:48;;;;;;;16.45;14.85;;;-2.10;99.90;;;;;;5108992;28;20058;-79
2021/12/21 03:38:15;;;;;;;19.75;17.73;;;-2.10;99.90;;;;;;5115972;28;20035;-78
2021/12/21 03:40:41;;;;;;;18.92;16.73;;;-2.10;99.90;;;;;;5099350;28;20055;-78
2021/12/21 03:43:06;;;;;;;18.73;16.83;;;-2.10;99.90;;;;;;5095366;28;20480;-79
2021/12/21 03:45:37;;;;;;;17.77;14.88;;;-2.10;99.90;;;;;;5109476;28;20055;-78
2021/12/21 03:48:02;;;;;;;15.60;13.90;;;-2.10;99.90;;;;;;5115672;28;20052;-79
2021/12/21 03:50:28;;;;;;;17.20;15.25;;;-2.10;99.90;;;;;;5101399;28;20048;-78
2021/12/21 03:52:54;;;;;;;15.85;14.00;;;-2.10;99.90;;;;;;5095587;28;20072;-79
2021/12/21 03:55:20;;;;;;;14.68;13.15;;;-2.10;99.90;;;;;;5095780;28;20112;-78
2021/12/21 03:57:46;;;;;;;15.15;13.55;;;-2.10;99.90;;;;;;5094383;28;20044;-78
2021/12/21 04:00:14;;;;;;;16.83;13.85;;;-2.20;99.90;;;;;;5105051;28;20043;-78
2021/12/21 04:02:40;;;;;;;15.77;14.18;;;-2.20;99.90;;;;;;5114866;28;20057;-77
2021/12/21 04:05:06;;;;;;;15.15;13.38;;;-2.20;99.90;;;;;;5107021;27;20040;-78
2021/12/21 04:07:32;;;;;;;15.48;13.88;;;-2.30;99.90;;;;;;5094818;28;20473;-78
2021/12/21 04:09:59;;;;;;;16.70;14.32;;;-2.30;99.90;;;;;;5094445;28;20040;-78
2021/12/21 04:12:25;;;;;;;17.00;13.80;;;-2.30;99.90;;;;;;5094809;28;20039;-78
2021/12/21 04:14:52;;;;;;;15.80;14.13;;;-2.30;99.90;;;;;;5097646;28;20185;-78
2021/12/21 04:17:22;;;;;;;18.77;15.93;;;-2.30;99.90;;;;;;5098029;28;20068;-78
2021/12/21 04:19:49;;;;;;;15.07;13.30;;;-2.40;99.90;;;;;;5104923;28;20044;-78
2021/12/21 04:22:16;;;;;;;14.20;11.80;;;-2.40;99.90;;;;;;5094549;28;20051;-78
2021/12/21 04:24:42;;;;;;;17.83;12.82;;;-2.40;99.90;;;;;;5101818;28;20055;-76
2021/12/21 04:27:08;;;;;;;11.55;10.38;;;-2.40;99.90;;;;;;5114535;28;20051;-78
2021/12/21 04:29:34;;;;;;;11.88;10.65;;;-2.40;99.90;;;;;;5112386;28;20047;-78
2021/12/21 04:32:00;;;;;;;13.40;11.77;;;-2.40;99.90;;;;;;5114261;28;20398;-78
2021/12/21 04:34:27;;;;;;;12.63;11.38;;;-2.40;99.90;;;;;;5112958;28;20036;-78
2021/12/21 04:36:52;;;;;;;14.43;12.93;;;-2.40;99.90;;;;;;5114028;28;20047;-77
2021/12/21 04:39:36;;;;;;;14.05;12.65;;;-2.40;99.90;;;;;;5111661;28;20097;-78
2021/12/21 04:42:02;;;;;;;13.98;12.57;;;-2.40;99.90;;;;;;5094665;28;20058;-77
2021/12/21 04:44:28;;;;;;;15.23;13.38;;;-2.50;99.90;;;;;;5097383;28;20048;-78
2021/12/21 04:46:54;;;;;;;14.40;13.07;;;-2.40;99.90;;;;;;5113867;28;20377;-78
2021/12/21 04:49:19;;;;;;;13.90;12.55;;;-2.40;99.90;;;;;;5108660;28;20053;-77
2021/12/21 04:51:45;;;;;;;15.90;13.27;;;-2.40;99.90;;;;;;5112471;28;20075;-76
2021/12/21 04:54:11;;;;;;;15.23;12.75;;;-2.40;99.90;;;;;;5113522;28;20480;-77
2021/12/21 04:56:38;;;;;;;14.50;12.57;;;-2.40;99.90;;;;;;5111736;28;20054;-77
2021/12/21 04:59:04;;;;;;;13.68;12.27;;;-2.50;99.90;;;;;;5113625;28;20046;-78
2021/12/21 05:01:29;;;;;;;10.57;9.68;;;-2.50;99.90;;;;;;5098529;28;20044;-78
2021/12/21 05:03:55;;;;;;;12.32;11.18;;;-2.40;99.90;;;;;;5097391;28;20039;-78
2021/12/21 05:06:21;;;;;;;11.70;10.70;;;-2.50;99.90;;;;;;5111131;28;20100;-78
2021/12/21 05:09:03;;;;;;;12.50;11.40;;;-2.50;99.90;;;;;;5082777;28;20402;-77
2021/12/21 05:11:33;;;;;;;12.55;11.25;;;-2.60;99.90;;;;;;5073375;28;20466;-78
2021/12/21 05:13:59;;;;;;;13.70;12.25;;;-2.60;99.90;;;;;;5072906;28;20060;-78
2021/12/21 05:16:24;;;;;;;12.93;11.60;;;-2.60;99.90;;;;;;5073430;28;20044;-78
2021/12/21 05:18:50;;;;;;;14.02;12.40;;;-2.60;99.90;;;;;;5086060;28;20044;-77
2021/12/21 05:21:16;;;;;;;13.45;12.15;;;-2.60;99.90;;;;;;5093651;28;20044;-78
2021/12/21 05:23:42;;;;;;;14.07;12.65;;;-2.60;99.90;;;;;;5092969;28;20476;-78
2021/12/21 05:26:07;;;;;;;12.45;11.35;;;-2.70;99.90;;;;;;5092770;28;20044;-78
2021/12/21 05:28:33;;;;;;;13.93;12.10;;;-2.70;99.90;;;;;;5093345;28;20032;-78
2021/12/21 05:30:59;;;;;;;13.30;12.00;;;-2.70;99.90;;;;;;5091152;28;20051;-78
2021/12/21 05:33:27;;;;;;;14.05;12.65;;;-2.70;99.90;;;;;;5093269;28;20044;-79
2021/12/21 05:35:53;;;;;;;14.40;12.98;;;-2.70;99.90;;;;;;5092653;28;20070;-77
2021/12/21 05:38:27;;;;;;;16.27;13.52;;;-2.80;99.90;;;;;;5093081;28;20043;-78
2021/12/21 05:40:54;;;;;;;14.80;13.30;;;-2.70;99.90;;;;;;5092690;28;20058;-77
2021/12/21 05:43:21;;;;;;;14.15;12.75;;;-2.80;99.90;;;;;;5090799;28;20075;-78
2021/12/21 05:45:47;;;;;;;16.33;13.07;;;-2.70;99.90;;;;;;5093020;28;20121;-78
2021/12/21 05:48:12;;;;;;;17.30;15.07;;;-2.70;99.90;;;;;;5092406;28;20051;-78
2021/12/21 05:50:38;;;;;;;19.10;17.10;;;-2.70;99.90;;;;;;5093204;28;20048;-78
2021/12/21 05:53:04;;;;;;;17.85;16.02;;;-2.70;99.90;;;;;;5091051;28;20397;-78
2021/12/21 05:55:30;;;;;;;17.42;15.63;;;-2.60;99.90;;;;;;5086130;28;20040;-78
2021/12/21 05:57:56;;;;;;;17.15;14.70;;;-2.60;99.90;;;;;;5072014;28;20116;-77
2021/12/21 06:00:24;;;;;;;14.68;13.25;;;-2.60;99.90;;;;;;5072900;28;20044;-78
2021/12/21 06:02:50;;;;;;;16.15;14.52;;;-2.60;99.90;;;;;;5072253;28;20454;-78
2021/12/21 06:05:16;;;;;;;17.58;15.77;;;-2.70;99.90;;;;;;5072012;28;20041;-78
2021/12/21 06:07:42;;;;;;;19.08;16.75;;;-2.70;99.90;;;;;;5088215;28;20394;-78
2021/12/21 06:10:19;;;;;;;18.20;16.30;;;-2.70;99.90;;;;;;5092108;28;20051;-78
2021/12/21 06:26:15;;;;;;;21.02;17.25;;;-2.70;99.90;;;;;;5092026;28;20048;-78
2021/12/21 06:28:42;;;;;;;20.95;17.30;;;-2.70;99.90;;;;;;5090476;28;20555;-78
2021/12/21 06:31:08;;;;;;;20.15;17.02;;;-2.70;99.90;;;;;;5087048;28;20056;-78
2021/12/21 06:33:34;;;;;;;20.23;17.38;;;-2.70;99.90;;;;;;5072259;28;20048;-78
2021/12/21 06:36:01;;;;;;;19.67;17.70;;;-2.70;99.90;;;;;;5084106;28;20206;-77
2021/12/21 06:38:27;;;;;;;20.60;18.70;;;-2.70;99.90;;;;;;5096517;28;20076;-78
2021/12/21 06:40:53;;;;;;;20.27;18.15;;;-2.60;99.90;;;;;;5096420;28;20106;-79
2021/12/21 06:43:19;;;;;;;20.58;18.38;;;-2.70;99.90;;;;;;5095079;28;20040;-78
2021/12/21 06:45:52;;;;;;;20.27;18.15;;;-2.70;99.90;;;;;;5096477;28;20109;-78
2021/12/21 06:53:53;;;;;;;23.25;18.83;;;-2.70;99.90;;;;;;5095878;28;20059;-79
2021/12/21 06:56:20;;;;;;;21.58;19.42;;;-2.70;99.90;;;;;;5095595;28;20056;-78
2021/12/21 06:58:45;;;;;;;23.70;21.23;;;-2.70;99.90;;;;;;5096060;28;20084;-79
2021/12/21 07:01:13;;;;;;;23.48;20.98;;;-2.70;99.90;;;;;;5095661;28;20076;-78
2021/12/21 07:03:41;;;;;;;24.13;21.52;;;-2.70;99.90;;;;;;5086634;28;20048;-78
2021/12/21 07:06:07;;;;;;;24.42;21.83;;;-2.70;99.90;;;;;;5075142;28;20119;-78
2021/12/21 07:08:44;;;;;;;25.23;22.00;;;-2.70;99.90;;;;;;5075674;28;20044;-78
2021/12/21 07:11:21;;;;;;;25.73;22.25;;;-2.70;99.90;;;;;;5075124;28;20053;-78
2021/12/21 07:19:16;;;;;;;24.30;21.67;;;-2.70;99.90;;;;;;5074974;28;20136;-78
2021/12/21 07:21:41;;;;;;;23.92;21.45;;;-2.80;99.90;;;;;;5090470;28;20119;-78
2021/12/21 07:24:08;;;;;;;25.80;22.63;;;-2.80;99.90;;;;;;5094847;28;20098;-77
2021/12/21 07:26:34;;;;;;;24.90;21.75;;;-2.80;99.90;;;;;;5093117;28;20044;-78
2021/12/21 07:28:59;;;;;;;27.08;23.02;;;-2.80;99.90;;;;;;5075873;28;20048;-80
2021/12/21 07:31:25;;;;;;;26.08;23.42;;;-2.80;99.90;;;;;;5074861;28;20040;-78
2021/12/21 07:33:51;;;;;;;24.35;21.88;;;-2.80;99.90;;;;;;5076586;28;20068;-79
2021/12/21 07:36:17;;;;;;;24.02;21.55;;;-2.80;99.90;;;;;;5075628;28;20496;-78
2021/12/21 07:38:42;;;;;;;25.13;21.02;;;-2.80;99.90;;;;;;5084653;28;20048;-79
2021/12/21 07:41:08;;;;;;;25.52;21.90;;;-2.80;99.90;;;;;;5093209;28;20097;-77
2021/12/21 07:43:34;;;;;;;22.35;19.88;;;-2.80;99.90;;;;;;5086615;28;20193;-78
2021/12/21 07:46:00;;;;;;;22.98;20.58;;;-2.80;99.90;;;;;;5074814;28;20052;-78
2021/12/21 07:48:26;;;;;;;22.10;19.08;;;-2.80;99.90;;;;;;5072843;28;20087;-78
2021/12/21 07:50:52;;;;;;;24.55;20.08;;;-2.90;99.90;;;;;;5078358;28;20129;-78
2021/12/21 07:53:19;;;;;;;23.48;21.05;;;-2.90;99.90;;;;;;5072764;28;20072;-78
2021/12/21 07:55:45;;;;;;;23.05;20.58;;;-2.90;99.90;;;;;;5084585;28;20056;-79
2021/12/21 07:58:11;;;;;;;23.70;21.17;;;-2.90;99.90;;;;;;5093195;28;20043;-77
2021/12/21 08:00:38;;;;;;;26.15;22.08;;;-3.00;99.90;;;;;;5093909;28;20117;-79
2021/12/21 08:03:04;;;;;;;24.17;21.75;;;-2.90;99.90;;;;;;5091756;28;20044;-78
2021/12/21 08:05:33;;;;;;;24.08;21.10;;;-2.90;99.90;;;;;;5079149;28;20805;-79
2021/12/21 08:08:10;;;;;;;23.35;20.85;;;-2.90;99.90;;;;;;5072989;28;20482;-79
2021/12/21 08:10:46;;;;;;;21.92;19.63;;;-2.90;99.90;;;;;;5072977;28;20105;-78
2021/12/21 08:13:12;;;;;;;24.25;20.40;;;-2.80;99.90;;;;;;5092336;28;20044;-76
2021/12/21 08:15:38;;;;;;;21.88;19.48;;;-2.90;99.90;;;;;;5092953;28;20044;-78
2021/12/21 08:18:04;;;;;;;21.80;19.17;;;-2.90;99.90;;;;;;5092412;28;20508;-78
2021/12/21 08:20:30;;;;;;;25.38;20.77;;;-2.90;99.90;;;;;;5092990;28;20048;-79
2021/12/21 08:22:56;;;;;;;23.67;21.20;;;-2.90;99.90;;;;;;5092186;28;20067;-79
2021/12/21 08:25:25;;;;;;;26.23;20.90;;;-2.80;99.90;;;;;;5077661;28;20148;-79
2021/12/21 08:27:52;;;;;;;26.52;21.55;;;-2.80;99.90;;;;;;5074417;28;20093;-79
2021/12/21 08:30:17;;;;;;;22.60;20.30;;;-2.70;99.90;;;;;;5088961;28;20501;-79
2021/12/21 08:32:43;;;;;;;23.52;20.60;;;-2.70;99.90;;;;;;5090115;28;20132;-79
2021/12/21 08:35:12;;;;;;;22.58;20.25;;;-2.70;99.90;;;;;;5089971;28;20105;-78
2021/12/21 08:37:38;;;;;;;21.98;19.80;;;-2.70;99.90;;;;;;5089795;28;20123;-79
2021/12/21 08:40:04;;;;;;;23.00;20.38;;;-2.60;99.90;;;;;;5088948;28;20051;-79
2021/12/21 08:42:32;;;;;;;23.65;21.20;;;-2.60;99.90;;;;;;5089435;28;20108;-78
2021/12/21 08:44:59;;;;;;;22.80;20.50;;;-2.60;99.90;;;;;;5049033;28;1142787;-79
2021/12/21 08:47:28;;;;;;;26.85;24.05;;;-2.60;99.90;;;;;;5072491;28;20043;-78
2021/12/21 08:49:53;;;;;;;25.67;22.92;;;-2.50;99.90;;;;;;5078663;28;20056;-78
2021/12/21 08:52:19;;;;;;;33.13;29.42;;;-2.50;99.90;;;;;;5069698;28;20123;-78
2021/12/21 08:54:45;;;;;;;37.03;32.45;;;-2.40;99.90;;;;;;5070411;28;20048;-78
2021/12/21 08:57:10;;;;;;;39.40;34.42;;;-2.40;99.90;;;;;;5069946;28;20575;-79
2021/12/21 08:59:36;;;;;;;42.92;36.40;;;-2.30;99.90;;;;;;5070568;28;20055;-78
2021/12/21 09:02:02;;;;;;;40.78;36.13;;;-2.20;99.90;;;;;;5078790;28;20040;-78
2021/12/21 09:04:28;;;;;;;38.20;31.95;;;-2.10;99.90;;;;;;5089719;28;20120;-79
2021/12/21 09:06:54;;;;;;;34.55;29.65;;;-2.00;99.90;;;;;;5090249;28;20472;-78
2021/12/21 09:09:20;;;;;;;34.55;29.10;;;-2.00;99.90;;;;;;5090599;28;20040;-78
2021/12/21 09:11:46;;;;;;;38.38;31.67;;;-1.90;99.90;;;;;;5089750;28;20040;-77
2021/12/21 09:14:12;;;;;;;33.70;30.10;;;-1.90;99.90;;;;;;5090718;28;20515;-78
2021/12/21 09:16:38;;;;;;;29.95;26.48;;;-1.80;99.90;;;;;;5089715;28;20044;-78
2021/12/21 09:19:04;;;;;;;30.05;26.00;;;-1.70;99.90;;;;;;5090282;28;20131;-78
2021/12/21 09:21:30;;;;;;;31.17;25.17;;;-1.70;99.90;;;;;;5090173;28;20126;-78
2021/12/21 09:23:56;;;;;;;30.33;25.50;;;-1.70;99.90;;;;;;5090001;28;20040;-78
2021/12/21 09:26:22;;;;;;;29.83;26.58;;;-1.70;99.90;;;;;;5089896;28;20117;-78
2021/12/21 09:28:48;;;;;;;31.63;26.60;;;-1.70;99.90;;;;;;5076333;28;20470;-78
2021/12/21 09:31:14;;;;;;;28.80;25.45;;;-1.60;99.90;;;;;;5084013;28;20126;-78
2021/12/21 09:33:39;;;;;;;31.70;25.48;;;-1.60;99.90;;;;;;5086783;28;20625;-78
2021/12/21 09:36:05;;;;;;;29.73;26.38;;;-1.60;99.90;;;;;;5089257;28;20040;-78
2021/12/21 09:38:31;;;;;;;27.38;24.52;;;-1.50;99.90;;;;;;5088908;28;20055;-78
2021/12/21 09:40:57;;;;;;;29.85;26.48;;;-1.50;99.90;;;;;;5088999;28;20051;-78
2021/12/21 09:43:23;;;;;;;29.23;25.67;;;-1.50;99.90;;;;;;5088898;28;20119;-78
2021/12/21 09:45:50;;;;;;;29.70;25.73;;;-1.40;99.90;;;;;;5089403;28;20165;-78
2021/12/21 09:48:15;;;;;;;28.48;25.23;;;-1.40;99.90;;;;;;5088960;28;20101;-78
2021/12/21 09:50:42;;;;;;;31.05;27.75;;;-1.30;99.90;;;;;;5089386;28;20776;-78
2021/12/21 09:53:09;;;;;;;33.90;30.30;;;-1.30;99.90;;;;;;5088743;28;20055;-78
2021/12/21 09:55:34;;;;;;;31.40;28.25;;;-1.30;99.90;;;;;;5087463;28;20048;-78
2021/12/21 09:58:00;;;;;;;32.88;29.48;;;-1.20;99.90;;;;;;5088583;28;20044;-78
2021/12/21 10:00:31;;;;;;;33.65;30.15;;;-1.20;99.90;;;;;;5089612;28;20048;-78
2021/12/21 10:03:03;;;;;;;33.10;29.70;;;-1.10;99.90;;;;;;5088589;28;20063;-78
2021/12/21 10:05:33;;;;;;;34.40;30.80;;;-1.10;99.90;;;;;;5089408;28;20058;-78
2021/12/21 10:08:04;;;;;;;36.53;32.70;;;-1.00;99.90;;;;;;5089524;28;20048;-78
2021/12/21 10:10:33;;;;;;;37.72;32.00;;;-0.90;99.90;;;;;;5084136;28;20040;-78
2021/12/21 10:13:10;;;;;;;36.58;32.90;;;-0.80;99.90;;;;;;5111492;27;20123;-78
2021/12/21 10:15:45;;;;;;;38.90;34.72;;;-0.70;99.90;;;;;;5089024;28;20388;-79
2021/12/21 10:18:12;;;;;;;37.67;33.85;;;-0.60;99.90;;;;;;5088669;28;20489;-78
2021/12/21 10:20:47;;;;;;;39.05;35.10;;;-0.40;99.90;;;;;;5083636;28;20040;-78
2021/12/21 10:23:16;;;;;;;43.60;39.10;;;-0.30;99.90;;;;;;5089783;28;20108;-79
2021/12/21 10:25:57;;;;;;;42.40;38.10;;;-0.30;99.90;;;;;;5086834;28;20108;-79
2021/12/21 10:28:34;;;;;;;44.13;39.72;;;-0.10;99.90;;;;;;5086586;28;20526;-80
2021/12/21 10:31:08;;;;;;;40.47;36.28;;;0.10;99.90;;;;;;5072483;28;20049;-81
2021/12/21 10:33:34;;;;;;;42.70;38.25;;;0.20;99.90;;;;;;5082473;28;20127;-78
2021/12/21 10:36:02;;;;;;;44.38;39.78;;;0.40;99.90;;;;;;5089861;28;20040;-82
2021/12/21 10:38:44;;;;;;;44.42;39.72;;;0.50;99.90;;;;;;5089361;28;20045;-83
2021/12/21 10:41:26;;;;;;;40.90;36.80;;;0.70;99.90;;;;;;5090009;28;20040;-84
2021/12/21 10:44:09;;;;;;;44.78;40.03;;;0.90;99.90;;;;;;5087575;28;20056;-84
2021/12/21 10:46:37;;;;;;;43.22;38.40;;;0.90;99.90;;;;;;5088484;28;20087;-76
2021/12/21 10:49:17;;;;;;;39.58;35.47;;;1.10;99.90;;;;;;5089756;28;20044;-86
2021/12/21 10:51:57;;;;;;;38.58;34.55;;;1.10;99.90;;;;;;5087638;28;20056;-86
2021/12/21 10:54:47;;;;;;;38.17;34.17;;;1.20;99.90;;;;;;5087801;28;20075;-86
2021/12/21 10:57:18;;;;;;;37.78;34.17;;;1.30;99.90;;;;;;5089721;28;20044;-85
2021/12/21 10:59:49;;;;;;;38.95;35.13;;;1.40;99.90;;;;;;5087710;28;20133;-83
2021/12/21 11:02:15;;;;;;;39.83;35.97;;;1.40;99.90;;;;;;5089733;28;20399;-87
2021/12/21 11:04:47;;;;;;;39.88;35.65;;;1.40;99.90;;;;;;5088667;28;20052;-79
2021/12/21 11:07:37;;;;;;;38.38;34.55;;;1.40;99.90;;;;;;5089857;28;20284;-87
2021/12/21 11:10:15;;;;;;;38.35;34.55;;;1.40;99.90;;;;;;5089122;28;20083;-87
2021/12/21 11:12:55;;;;;;;39.15;35.15;;;1.30;99.90;;;;;;5088274;28;20087;-84
2021/12/21 11:15:29;;;;;;;40.53;36.42;;;1.30;99.90;;;;;;5087412;28;20148;-87
2021/12/21 11:17:57;;;;;;;40.50;36.65;;;1.30;99.90;;;;;;5079151;28;20067;-87
2021/12/21 11:20:25;;;;;;;40.38;36.40;;;1.30;99.90;;;;;;5069086;28;20049;-87
2021/12/21 11:22:52;;;;;;;41.30;37.20;;;1.30;99.90;;;;;;5069764;28;20135;-87
2021/12/21 11:25:18;;;;;;;40.65;36.55;;;1.30;99.90;;;;;;5084423;28;20048;-87
2021/12/21 11:27:44;;;;;;;42.90;38.50;;;1.30;99.90;;;;;;5092965;28;20044;-87
2021/12/21 11:30:17;;;;;;;42.28;37.97;;;1.30;99.90;;;;;;5094478;28;20500;-85
2021/12/21 11:32:48;;;;;;;40.08;35.85;;;1.40;99.90;;;;;;5093397;28;20036;-87
2021/12/21 11:37:51;;;;;;;40.50;36.38;;;1.50;99.90;;;;;;5093815;28;20048;-86
2021/12/21 11:40:20;;;;;;;39.75;35.60;;;1.60;99.90;;;;;;5092630;28;20072;-86
2021/12/21 11:42:52;;;;;;;37.47;33.78;;;1.60;99.90;;;;;;5091576;28;20083;-86
2021/12/21 11:45:32;;;;;;;38.67;34.83;;;1.70;99.90;;;;;;5094757;28;20101;-85
2021/12/21 11:48:15;;;;;;;37.63;33.95;;;1.70;99.90;;;;;;5092582;28;20028;-85
2021/12/21 11:50:47;;;;;;;37.88;33.83;;;1.80;99.90;;;;;;5093813;28;20055;-84
2021/12/21 11:53:17;;;;;;;39.03;35.00;;;1.80;99.90;;;;;;5093913;28;20040;-85
2021/12/21 11:55:49;;;;;;;37.80;33.92;;;1.80;99.90;;;;;;5093835;28;20040;-84
2021/12/21 11:58:15;;;;;;;36.90;33.20;;;1.80;99.90;;;;;;5094378;28;20129;-84
2021/12/21 12:00:54;;;;;;;37.83;34.15;;;1.90;99.90;;;;;;5092615;28;20087;-77
2021/12/21 12:03:23;;;;;;;30.98;27.73;;;1.90;99.90;;;;;;5085983;28;20408;-84
2021/12/21 12:06:05;;;;;;;27.90;24.90;;;1.90;99.90;;;;;;5094870;28;20123;-84
2021/12/21 12:08:59;;;;;;;24.88;22.27;;;1.90;99.90;;;;;;5095137;28;20051;-84
2021/12/21 12:11:35;;;;;;;24.20;21.60;;;2.00;99.90;;;;;;5095269;28;20131;-83
2021/12/21 12:14:09;;;;;;;25.70;22.95;;;2.00;99.90;;;;;;5094755;28;20048;-82
2021/12/21 12:16:53;;;;;;;26.65;23.55;;;2.00;99.90;;;;;;5095097;28;20129;-82
2021/12/21 12:19:22;;;;;;;28.65;25.63;;;2.10;99.90;;;;;;5095138;28;20480;-82
2021/12/21 12:22:04;;;;;;;28.92;26.17;;;2.10;99.90;;;;;;5094485;28;20162;-82
2021/12/21 12:24:36;;;;;;;30.10;27.00;;;2.10;99.90;;;;;;5094295;28;20535;-82
2021/12/21 12:27:16;;;;;;;29.40;26.40;;;2.20;99.90;;;;;;5094473;28;20055;-82
2021/12/21 12:30:12;;;;;;;31.95;28.85;;;2.20;99.90;;;;;;5094852;28;20046;-81
2021/12/21 12:32:55;;;;;;;31.55;28.27;;;2.20;99.90;;;;;;5094161;28;20059;-81
2021/12/21 12:35:26;;;;;;;31.45;28.27;;;2.30;99.90;;;;;;5094769;28;20091;-81
2021/12/21 12:37:57;;;;;;;32.63;28.92;;;2.30;99.90;;;;;;5093822;28;20035;-80
2021/12/21 12:40:25;;;;;;;;;;;2.40;99.90;;;;;;5095015;28;20048;-81
2021/12/21 12:42:56;;;;;;;31.08;27.88;;;2.40;99.90;;;;;;5093770;28;20006;-80
2021/12/21 12:45:23;;;;;;;32.00;28.65;;;2.40;99.90;;;;;;5094532;28;20086;-81
2021/12/21 12:47:53;;;;;;;31.45;25.42;;;2.50;99.90;;;;;;5094069;28;20059;-80
2021/12/21 12:50:25;;;;;;;28.95;26.10;;;2.50;99.90;;;;;;5094829;28;20405;-80
2021/12/21 12:53:00;;;;;;;29.95;26.95;;;2.50;99.90;;;;;;5094053;28;20052;-80
2021/12/21 12:55:40;;;;;;;31.35;28.05;;;2.60;99.90;;;;;;5094206;28;20078;-80
2021/12/21 12:58:22;;;;;;;26.43;23.63;;;2.60;99.90;;;;;;5093960;28;20051;-80
2021/12/21 13:00:57;;;;;;;29.85;26.75;;;2.60;99.90;;;;;;5094340;28;20278;-80
2021/12/21 13:03:35;;;;;;;30.15;26.67;;;2.70;99.90;;;;;;5094195;28;20529;-79
2021/12/21 13:06:08;;;;;;;29.35;26.25;;;2.70;99.90;;;;;;5093072;28;20048;-79
2021/12/21 13:08:34;;;;;;;30.63;27.65;;;2.70;99.90;;;;;;5086792;28;20040;-79
2021/12/21 13:11:01;;;;;;;31.17;28.17;;;2.70;99.90;;;;;;5092875;28;20048;-79
2021/12/21 13:13:39;;;;;;;29.80;26.70;;;2.70;99.90;;;;;;5093946;28;20048;-79
2021/12/21 13:16:08;;;;;;;30.90;27.67;;;2.80;99.90;;;;;;5093190;28;20105;-79
2021/12/21 13:18:45;;;;;;;30.70;27.48;;;2.80;99.90;;;;;;5093533;28;20481;-80
2021/12/21 13:21:20;;;;;;;27.75;24.83;;;2.80;99.90;;;;;;5093491;28;20476;-79
2021/12/21 13:23:49;;;;;;;28.42;25.58;;;2.80;99.90;;;;;;5094118;28;20040;-79
2021/12/21 13:26:16;;;;;;;28.98;25.98;;;2.80;99.90;;;;;;5093006;28;20145;-78
2021/12/21 13:28:50;;;;;;;27.65;24.88;;;2.80;99.90;;;;;;5093901;28;20046;-78
2021/12/21 13:31:18;;;;;;;28.52;25.52;;;2.80;99.90;;;;;;5093284;28;20491;-79
2021/12/21 13:33:52;;;;;;;28.20;25.20;;;2.90;99.90;;;;;;5093673;28;20051;-79
2021/12/21 13:36:18;;;;;;;28.15;25.23;;;2.90;99.90;;;;;;5093698;28;20089;-79
2021/12/21 13:38:44;;;;;;;27.35;24.45;;;2.80;99.90;;;;;;5093702;28;20119;-79